createdAt,value
2023-05-21T00:00:10.927Z,12.83
2023-05-21T00:02:38.151Z,12.80
2023-05-21T00:05:05.594Z,11.73
2023-05-21T00:07:33.178Z,13.80
2023-05-21T00:10:00.351Z,12.23
2023-05-21T00:12:27.171Z,13.60
2023-05-21T00:14:53.906Z,10.70
2023-05-21T00:17:20.622Z,11.13
2023-05-21T00:19:47.734Z,12.97
2023-05-21T00:22:14.484Z,16.90
2023-05-21T00:24:41.586Z,12.20
2023-05-21T00:27:08.497Z,12.80
2023-05-21T00:29:35.491Z,12.17
2023-05-21T00:32:03.178Z,14.53
2023-05-21T00:34:30.282Z,13.23
2023-05-21T00:36:57.749Z,13.10
2023-05-21T00:39:24.717Z,11.57
2023-05-21T00:41:51.707Z,15.70
2023-05-21T00:44:19.757Z,13.47
2023-05-21T00:46:48.968Z,12.90
2023-05-21T00:49:16.350Z,17.10
2023-05-21T00:51:45.334Z,11.60
2023-05-21T00:54:12.769Z,15.53
2023-05-21T00:56:39.904Z,13.60
2023-05-21T00:59:15.822Z,12.13
2023-05-21T01:01:46.365Z,13.20
2023-05-21T01:04:13.776Z,10.93
2023-05-21T01:06:40.667Z,13.90
2023-05-21T01:09:07.698Z,14.30
2023-05-21T01:11:44.565Z,17.00
2023-05-21T01:14:13.438Z,13.97
2023-05-21T01:16:44.043Z,14.27
2023-05-21T01:19:17.845Z,11.17
2023-05-21T01:21:56.794Z,10.37
2023-05-21T01:24:23.822Z,11.87
2023-05-21T01:26:50.765Z,11.17
2023-05-21T01:29:17.965Z,10.67
2023-05-21T01:32:34.371Z,12.07
2023-05-21T01:35:04.866Z,15.40
2023-05-21T01:37:44.503Z,14.40
2023-05-21T01:40:30.920Z,11.47
2023-05-21T01:42:58.795Z,10.53
2023-05-21T01:45:27.828Z,12.90
2023-05-21T01:47:56.163Z,13.47
2023-05-21T01:50:25.034Z,18.20
2023-05-21T01:52:53.683Z,11.57
2023-05-21T01:55:24.925Z,10.47
2023-05-21T01:57:56.042Z,19.67
2023-05-21T02:00:24.756Z,12.77
2023-05-21T02:02:52.511Z,12.57
2023-05-21T02:05:19.631Z,10.20
2023-05-21T02:07:47.571Z,12.30
2023-05-21T02:10:14.554Z,14.17
2023-05-21T02:12:41.467Z,13.67
2023-05-21T02:15:08.653Z,11.60
2023-05-21T02:17:36.155Z,10.80
2023-05-21T02:20:11.710Z,12.03
2023-05-21T02:22:39.965Z,15.50
2023-05-21T02:25:08.913Z,13.70
2023-05-21T02:27:37.733Z,16.07
2023-05-21T02:30:07.852Z,11.97
2023-05-21T02:32:35.494Z,11.73
2023-05-21T02:35:04.287Z,11.70
2023-05-21T02:37:35.102Z,12.37
2023-05-21T02:42:30.362Z,11.80
2023-05-21T02:44:57.328Z,14.30
2023-05-21T02:47:25.489Z,13.20
2023-05-21T02:49:53.445Z,16.33
2023-05-21T02:52:24.196Z,11.27
2023-05-21T02:54:52.234Z,13.20
2023-05-21T02:57:19.470Z,14.10
2023-05-21T02:59:46.416Z,12.80
2023-05-21T03:02:13.534Z,20.70
2023-05-21T03:04:46.473Z,13.70
2023-05-21T03:07:20.006Z,11.97
2023-05-21T03:09:47.625Z,11.93
2023-05-21T03:12:14.619Z,18.50
2023-05-21T03:14:46.459Z,14.43
2023-05-21T03:17:17.235Z,15.30
2023-05-21T03:19:44.717Z,14.03
2023-05-21T03:22:11.700Z,13.07
2023-05-21T03:24:42.223Z,16.50
2023-05-21T03:27:09.120Z,10.70
2023-05-21T03:29:36.299Z,11.60
2023-05-21T03:32:03.812Z,16.90
2023-05-21T03:34:31.309Z,13.50
2023-05-21T03:36:58.278Z,14.00
2023-05-21T03:39:25.368Z,14.33
2023-05-21T03:41:52.257Z,16.37
2023-05-21T03:44:19.138Z,10.03
2023-05-21T03:46:46.105Z,11.70
2023-05-21T03:49:14.421Z,12.17
2023-05-21T03:51:41.337Z,12.27
2023-05-21T03:54:08.407Z,12.57
2023-05-21T03:56:35.408Z,11.57
2023-05-21T03:59:02.532Z,15.13
2023-05-21T04:01:29.487Z,14.20
2023-05-21T04:03:57.293Z,12.93
2023-05-21T04:06:24.405Z,10.70
2023-05-21T04:08:52.193Z,15.47
2023-05-21T04:11:20.913Z,11.13
2023-05-21T04:13:48.245Z,12.03
2023-05-21T04:16:19.095Z,12.13
2023-05-21T04:18:47.009Z,13.30
2023-05-21T04:21:14.132Z,13.10
2023-05-21T04:23:41.043Z,12.50
2023-05-21T04:26:08.620Z,12.80
2023-05-21T04:28:35.638Z,18.03
2023-05-21T04:31:02.764Z,15.67
2023-05-21T04:33:30.442Z,11.07
2023-05-21T04:35:58.145Z,12.00
2023-05-21T04:38:26.076Z,12.23
2023-05-21T04:40:53.647Z,16.47
2023-05-21T04:43:26.285Z,14.13
2023-05-21T04:45:55.230Z,14.90
2023-05-21T04:48:27.154Z,12.60
2023-05-21T04:50:54.960Z,13.27
2023-05-21T04:53:23.308Z,12.70
2023-05-21T04:55:50.430Z,12.07
2023-05-21T04:58:20.167Z,17.63
2023-05-21T05:00:47.590Z,11.43
2023-05-21T05:03:14.852Z,14.27
2023-05-21T05:05:42.147Z,12.17
2023-05-21T05:08:09.243Z,12.50
2023-05-21T05:10:36.418Z,13.10
2023-05-21T05:13:03.595Z,12.40
2023-05-21T05:15:30.604Z,11.43
2023-05-21T05:17:57.628Z,13.10
2023-05-21T05:20:24.658Z,12.63
2023-05-21T05:22:51.601Z,15.60
2023-05-21T05:25:18.565Z,14.10
2023-05-21T05:27:45.641Z,14.50
2023-05-21T05:30:12.720Z,16.20
2023-05-21T05:32:39.633Z,11.90
2023-05-21T05:35:07.373Z,12.67
2023-05-21T05:37:34.413Z,11.50
2023-05-21T05:40:01.517Z,12.90
2023-05-21T05:42:28.680Z,18.03
2023-05-21T05:44:56.188Z,12.23
2023-05-21T05:47:23.288Z,12.87
2023-05-21T05:49:50.350Z,12.30
2023-05-21T05:52:17.536Z,10.97
2023-05-21T05:54:44.867Z,14.63
2023-05-21T05:57:12.947Z,12.60
2023-05-21T05:59:39.889Z,11.90
2023-05-21T06:02:07.490Z,14.17
2023-05-21T06:04:34.467Z,12.70
2023-05-21T06:07:01.878Z,12.13
2023-05-21T06:09:29.618Z,10.20
2023-05-21T06:11:56.609Z,11.33
2023-05-21T06:14:23.494Z,12.37
2023-05-21T06:16:50.420Z,15.23
2023-05-21T06:19:17.572Z,13.23
2023-05-21T06:21:45.161Z,12.93
2023-05-21T06:24:12.980Z,13.33
2023-05-21T06:26:40.570Z,14.00
2023-05-21T06:29:07.761Z,14.60
2023-05-21T06:31:34.761Z,12.70
2023-05-21T06:34:02.287Z,11.50
2023-05-21T06:36:30.448Z,13.83
2023-05-21T06:38:57.489Z,13.90
2023-05-21T06:41:24.799Z,13.37
2023-05-21T06:43:51.812Z,11.03
2023-05-21T06:46:18.918Z,13.87
2023-05-21T06:48:48.564Z,13.87
2023-05-21T06:51:15.601Z,14.27
2023-05-21T06:53:42.573Z,13.17
2023-05-21T06:56:09.507Z,12.30
2023-05-21T06:58:36.437Z,11.60
2023-05-21T07:01:04.603Z,14.40
2023-05-21T07:03:31.745Z,11.57
2023-05-21T07:05:59.116Z,11.60
2023-05-21T07:08:26.177Z,13.23
2023-05-21T07:10:53.338Z,15.60
2023-05-21T07:13:20.468Z,11.20
2023-05-21T07:15:47.424Z,11.87
2023-05-21T07:18:14.496Z,11.37
2023-05-21T07:20:42.299Z,12.40
2023-05-21T07:23:09.350Z,13.37
2023-05-21T07:25:36.715Z,15.67
2023-05-21T07:28:06.436Z,15.30
2023-05-21T07:30:34.202Z,12.53
2023-05-21T07:33:01.342Z,15.33
2023-05-21T07:35:29.167Z,12.10
2023-05-21T07:37:56.155Z,11.33
2023-05-21T07:40:23.117Z,13.70
2023-05-21T07:42:50.106Z,15.90
2023-05-21T07:45:17.608Z,13.03
2023-05-21T07:47:46.790Z,11.27
2023-05-21T07:50:14.793Z,15.23
2023-05-21T07:52:41.772Z,13.43
2023-05-21T07:55:10.170Z,13.67
2023-05-21T07:57:37.323Z,15.60
2023-05-21T08:00:08.153Z,12.37
2023-05-21T08:02:35.190Z,11.87
2023-05-21T08:05:02.677Z,13.83
2023-05-21T08:07:29.761Z,12.93
2023-05-21T08:09:57.082Z,14.83
2023-05-21T08:12:24.398Z,12.50
2023-05-21T08:14:51.572Z,10.70
2023-05-21T08:17:18.899Z,12.77
2023-05-21T08:19:45.941Z,14.80
2023-05-21T08:22:13.692Z,14.23
2023-05-21T08:24:41.412Z,10.63
2023-05-21T08:27:08.522Z,12.83
2023-05-21T08:29:35.861Z,12.87
2023-05-21T08:32:02.983Z,14.37
2023-05-21T08:34:30.054Z,12.20
2023-05-21T08:36:57.132Z,11.40
2023-05-21T08:39:24.303Z,12.50
2023-05-21T08:41:56.025Z,16.30
2023-05-21T08:44:28.548Z,14.43
2023-05-21T08:46:59.333Z,14.40
2023-05-21T08:49:30.411Z,14.27
2023-05-21T08:51:58.568Z,12.60
2023-05-21T08:54:25.567Z,14.50
2023-05-21T08:56:53.643Z,15.40
2023-05-21T08:59:21.956Z,15.93
2023-05-21T09:01:50.171Z,17.17
2023-05-21T09:04:21.373Z,18.93
2023-05-21T09:06:49.023Z,16.53
2023-05-21T09:09:28.240Z,12.80
2023-05-21T09:11:55.465Z,19.73
2023-05-21T09:14:24.199Z,14.27
2023-05-21T09:16:51.460Z,17.33
2023-05-21T09:19:22.400Z,15.30
2023-05-21T09:21:52.918Z,14.60
2023-05-21T09:24:25.176Z,13.97
2023-05-21T09:26:52.596Z,16.73
2023-05-21T09:29:20.152Z,15.80
2023-05-21T09:31:47.676Z,15.20
2023-05-21T09:34:15.045Z,17.40
2023-05-21T09:36:42.199Z,17.73
2023-05-21T09:39:11.423Z,17.67
2023-05-21T09:41:38.546Z,14.00
2023-05-21T09:44:05.821Z,15.30
2023-05-21T09:46:41.005Z,13.93
2023-05-21T09:49:22.484Z,20.20
2023-05-21T09:51:49.531Z,15.80
2023-05-21T09:54:16.599Z,17.03
2023-05-21T09:56:43.592Z,18.77
2023-05-21T09:59:10.540Z,19.20
2023-05-21T10:01:38.768Z,17.70
2023-05-21T10:04:09.247Z,21.73
2023-05-21T10:06:43.661Z,17.90
2023-05-21T10:09:11.713Z,16.80
2023-05-21T10:11:42.645Z,16.37
2023-05-21T10:14:19.497Z,17.30
2023-05-21T10:16:48.224Z,16.90
2023-05-21T10:19:17.033Z,14.67
2023-05-21T10:21:45.861Z,16.37
2023-05-21T10:24:13.815Z,16.00
2023-05-21T10:26:41.717Z,14.60
2023-05-21T10:29:10.121Z,15.87
2023-05-21T10:31:39.748Z,16.30
2023-05-21T10:34:07.280Z,15.63
2023-05-21T10:36:38.334Z,16.00
2023-05-21T10:39:08.459Z,19.03
2023-05-21T10:42:09.662Z,19.43
2023-05-21T10:45:04.946Z,15.63
2023-05-21T10:47:34.872Z,15.67
2023-05-21T10:50:07.807Z,17.40
2023-05-21T10:52:58.614Z,13.33
2023-05-21T10:55:28.769Z,13.40
2023-05-21T10:58:01.939Z,15.77
2023-05-21T11:00:31.608Z,18.23
2023-05-21T11:03:00.506Z,15.07
2023-05-21T11:05:49.592Z,15.80
2023-05-21T11:08:25.253Z,16.73
2023-05-21T11:11:00.289Z,16.80
2023-05-21T11:13:31.276Z,18.27
2023-05-21T11:16:07.938Z,14.87
2023-05-21T11:18:38.119Z,14.27
2023-05-21T11:21:16.001Z,24.27
2023-05-21T11:23:52.248Z,16.07
2023-05-21T11:26:22.533Z,19.43
2023-05-21T11:29:05.082Z,18.50
2023-05-21T11:31:39.901Z,16.77
2023-05-21T11:34:13.982Z,15.87
2023-05-21T11:36:45.253Z,16.43
2023-05-21T11:39:21.878Z,16.20
2023-05-21T11:42:02.428Z,17.53
2023-05-21T11:44:49.185Z,16.43
2023-05-21T11:47:20.422Z,17.40
2023-05-21T11:49:48.204Z,23.53
2023-05-21T11:52:15.665Z,17.40
2023-05-21T11:54:46.348Z,17.33
2023-05-21T11:57:17.801Z,18.17
2023-05-21T11:59:51.781Z,18.23
2023-05-21T12:02:21.228Z,16.83
2023-05-21T12:04:50.252Z,18.07
2023-05-21T12:07:19.870Z,17.87
2023-05-21T12:09:48.552Z,18.90
2023-05-21T12:12:19.890Z,21.80
2023-05-21T12:14:49.410Z,18.23
2023-05-21T12:17:21.774Z,20.03
2023-05-21T12:19:55.182Z,17.53
2023-05-21T12:22:24.714Z,18.63
2023-05-21T12:24:54.183Z,19.17
2023-05-21T12:27:22.637Z,17.90
2023-05-21T12:29:54.331Z,14.23
2023-05-21T12:32:22.422Z,17.67
2023-05-21T12:34:51.466Z,17.27
2023-05-21T12:37:32.659Z,17.37
2023-05-21T12:40:01.499Z,20.33
2023-05-21T12:42:31.019Z,16.40
2023-05-21T12:44:58.580Z,19.30
2023-05-21T12:47:27.012Z,20.03
2023-05-21T12:50:01.923Z,26.90
2023-05-21T12:52:31.749Z,20.60
2023-05-21T12:54:59.531Z,23.57
2023-05-21T12:57:37.236Z,23.40
2023-05-21T13:00:11.130Z,17.60
2023-05-21T13:02:42.860Z,16.23
2023-05-21T13:05:17.904Z,19.27
2023-05-21T13:07:47.180Z,19.60
2023-05-21T13:10:16.795Z,19.77
2023-05-21T13:12:44.714Z,18.80
2023-05-21T13:15:12.458Z,18.97
2023-05-21T13:17:39.669Z,20.10
2023-05-21T13:20:16.569Z,21.80
2023-05-21T13:22:48.111Z,19.10
2023-05-21T13:25:22.373Z,20.77
2023-05-21T13:27:50.860Z,16.73
2023-05-21T13:30:18.677Z,19.13
2023-05-21T13:32:46.097Z,19.80
2023-05-21T13:35:13.493Z,15.20
2023-05-21T13:37:41.093Z,17.63
2023-05-21T13:40:19.341Z,15.60
2023-05-21T13:42:47.820Z,14.40
2023-05-21T13:45:16.803Z,15.30
2023-05-21T13:47:44.998Z,17.23
2023-05-21T13:50:13.043Z,17.23
2023-05-21T13:52:40.517Z,14.73
2023-05-21T13:55:07.834Z,17.17
2023-05-21T13:57:35.400Z,16.77
2023-05-21T14:00:04.917Z,17.77
2023-05-21T14:02:32.002Z,15.40
2023-05-21T14:04:59.168Z,15.87
2023-05-21T14:07:26.971Z,14.23
2023-05-21T14:09:54.191Z,14.53
2023-05-21T14:12:22.075Z,13.83
2023-05-21T14:14:50.002Z,15.40
2023-05-21T14:17:16.918Z,16.50
2023-05-21T14:19:43.888Z,15.40
2023-05-21T14:22:10.846Z,16.10
2023-05-21T14:24:37.823Z,17.17
2023-05-21T14:27:04.871Z,15.03
2023-05-21T14:29:33.208Z,22.47
2023-05-21T14:32:00.575Z,15.37
2023-05-21T14:34:27.619Z,17.50
2023-05-21T14:36:54.631Z,12.80
2023-05-21T14:39:21.872Z,18.30
2023-05-21T14:41:48.911Z,18.93
2023-05-21T14:44:15.855Z,17.50
2023-05-21T14:46:42.936Z,16.53
2023-05-21T14:49:11.849Z,15.70
2023-05-21T14:51:38.778Z,15.57
2023-05-21T14:54:05.677Z,14.33
2023-05-21T14:56:32.629Z,14.03
2023-05-21T14:58:59.520Z,16.37
2023-05-21T15:01:26.473Z,16.33
2023-05-21T15:03:53.505Z,15.17
2023-05-21T15:06:20.845Z,15.40
2023-05-21T15:08:47.755Z,17.13
2023-05-21T15:11:14.681Z,17.30
2023-05-21T15:13:41.641Z,14.70
2023-05-21T15:16:08.762Z,17.00
2023-05-21T15:18:35.880Z,16.60
2023-05-21T15:21:02.876Z,18.27
2023-05-21T15:23:29.779Z,17.23
2023-05-21T15:25:57.067Z,16.10
2023-05-21T15:28:23.994Z,16.00
2023-05-21T15:30:51.000Z,17.27
2023-05-21T15:33:18.169Z,15.33
2023-05-21T15:35:45.440Z,14.97
2023-05-21T15:38:12.724Z,15.60
2023-05-21T15:40:42.265Z,14.70
2023-05-21T15:43:09.612Z,21.33
2023-05-21T15:45:37.310Z,16.70
2023-05-21T15:48:05.053Z,19.60
2023-05-21T15:50:32.031Z,16.03
2023-05-21T15:52:58.972Z,13.40
2023-05-21T15:55:26.092Z,13.67
2023-05-21T15:57:53.025Z,14.60
2023-05-21T16:00:19.987Z,13.87
2023-05-21T16:02:47.020Z,14.80
2023-05-21T16:05:13.920Z,14.97
2023-05-21T16:07:41.792Z,17.97
2023-05-21T16:10:10.564Z,13.77
2023-05-21T16:12:38.199Z,15.13
2023-05-21T16:15:06.352Z,20.50
2023-05-21T16:17:33.454Z,15.73
2023-05-21T16:20:00.907Z,27.40
2023-05-21T16:22:28.017Z,18.17
2023-05-21T16:24:55.828Z,22.27
2023-05-21T16:27:22.773Z,13.77
2023-05-21T16:29:49.794Z,15.17
2023-05-21T16:32:16.788Z,15.47
2023-05-21T16:34:43.766Z,15.40
2023-05-21T16:37:11.201Z,19.83
2023-05-21T16:39:38.530Z,18.40
2023-05-21T16:42:06.799Z,15.23
2023-05-21T16:44:33.772Z,27.63
2023-05-21T16:47:02.207Z,17.90
2023-05-21T16:49:29.184Z,21.03
2023-05-21T16:51:56.295Z,16.20
2023-05-21T16:54:23.259Z,18.33
2023-05-21T16:56:50.400Z,16.30
2023-05-21T16:59:17.382Z,15.70
2023-05-21T17:01:44.483Z,16.60
2023-05-21T17:04:11.782Z,17.30
2023-05-21T17:06:39.110Z,18.60
2023-05-21T17:09:06.357Z,15.90
2023-05-21T17:11:35.107Z,16.10
2023-05-21T17:14:02.137Z,16.00
2023-05-21T17:16:29.221Z,18.33
2023-05-21T17:18:56.211Z,18.13
2023-05-21T17:21:23.471Z,18.43
2023-05-21T17:23:50.379Z,15.77
2023-05-21T17:26:17.377Z,18.33
2023-05-21T17:28:45.075Z,20.80
2023-05-21T17:31:12.208Z,20.47
2023-05-21T17:33:39.424Z,17.93
2023-05-21T17:36:06.772Z,17.33
2023-05-21T17:38:33.941Z,19.20
2023-05-21T17:41:00.868Z,18.47
2023-05-21T17:43:27.952Z,17.93
2023-05-21T17:45:55.124Z,24.83
2023-05-21T17:48:22.160Z,18.00
2023-05-21T17:50:49.266Z,20.97
2023-05-21T17:53:16.742Z,18.17
2023-05-21T17:55:44.265Z,17.80
2023-05-21T17:58:11.191Z,19.33
2023-05-21T18:00:38.430Z,17.77
2023-05-21T18:03:05.782Z,18.63
2023-05-21T18:05:32.760Z,15.90
2023-05-21T18:08:01.417Z,17.97
2023-05-21T18:10:28.699Z,21.50
2023-05-21T18:12:56.445Z,19.60
2023-05-21T18:15:23.672Z,16.13
2023-05-21T18:17:50.703Z,18.07
2023-05-21T18:20:18.767Z,15.97
2023-05-21T18:22:46.358Z,19.53
2023-05-21T18:25:13.359Z,23.80
2023-05-21T18:27:40.429Z,22.03
2023-05-21T18:30:08.542Z,21.00
2023-05-21T18:32:38.961Z,23.00
2023-05-21T18:35:11.414Z,21.23
2023-05-21T18:37:41.586Z,23.70
2023-05-21T18:40:09.237Z,26.63
2023-05-21T18:42:36.678Z,24.47
2023-05-21T18:45:10.654Z,23.43
2023-05-21T18:47:39.221Z,24.17
2023-05-21T18:50:09.606Z,21.33
2023-05-21T18:52:36.540Z,18.33
2023-05-21T18:55:03.648Z,19.57
2023-05-21T18:57:31.685Z,23.27
2023-05-21T19:00:00.111Z,20.93
2023-05-21T19:02:28.333Z,24.20
2023-05-21T19:04:55.634Z,24.50
2023-05-21T19:07:22.542Z,22.07
2023-05-21T19:09:50.658Z,21.80
2023-05-21T19:12:17.564Z,21.87
2023-05-21T19:14:45.080Z,21.93
2023-05-21T19:17:13.631Z,23.03
2023-05-21T19:19:41.193Z,20.03
2023-05-21T19:22:08.246Z,19.20
2023-05-21T19:24:35.182Z,23.17
2023-05-21T19:27:02.302Z,18.67
2023-05-21T19:29:29.235Z,20.30
2023-05-21T19:31:58.369Z,20.87
2023-05-21T19:34:26.940Z,25.63
2023-05-21T19:36:54.168Z,23.97
2023-05-21T19:39:21.790Z,21.67
2023-05-21T19:41:48.852Z,20.97
2023-05-21T19:44:16.630Z,18.83
2023-05-21T19:46:43.504Z,22.20
2023-05-21T19:49:15.923Z,23.80
2023-05-21T19:51:43.489Z,27.43
2023-05-21T19:54:10.708Z,28.03
2023-05-21T19:56:37.579Z,25.10
2023-05-21T19:59:04.698Z,28.23
2023-05-21T20:01:35.659Z,25.47
2023-05-21T20:04:02.652Z,25.77
2023-05-21T20:06:32.467Z,25.97
2023-05-21T20:08:59.464Z,22.00
2023-05-21T20:11:26.495Z,28.03
2023-05-21T20:13:54.431Z,26.90
2023-05-21T20:16:21.553Z,23.37
2023-05-21T20:18:49.200Z,25.23
2023-05-21T20:21:20.211Z,23.57
2023-05-21T20:23:47.757Z,22.20
2023-05-21T20:26:15.820Z,23.70
2023-05-21T20:28:43.536Z,22.03
2023-05-21T20:31:11.291Z,27.80
2023-05-21T20:33:40.968Z,25.53
2023-05-21T20:36:08.148Z,25.43
2023-05-21T20:38:37.197Z,28.80
2023-05-21T20:41:05.672Z,22.90
2023-05-21T20:43:33.032Z,22.10
2023-05-21T20:46:00.696Z,20.33
2023-05-21T20:48:30.043Z,26.73
2023-05-21T20:50:58.011Z,22.63
2023-05-21T20:53:26.034Z,22.87
2023-05-21T20:55:54.915Z,30.17
2023-05-21T20:58:24.012Z,24.87
2023-05-21T21:00:51.238Z,26.70
2023-05-21T21:03:18.869Z,24.43
2023-05-21T21:05:46.524Z,26.30
2023-05-21T21:08:16.084Z,24.47
2023-05-21T21:10:46.798Z,26.40
2023-05-21T21:13:14.345Z,27.50
2023-05-21T21:15:42.745Z,26.90
2023-05-21T21:18:12.378Z,25.93
2023-05-21T21:20:41.632Z,29.37
2023-05-21T21:23:08.934Z,27.43
2023-05-21T21:25:36.254Z,30.20
2023-05-21T21:28:03.395Z,26.10
2023-05-21T21:30:31.152Z,20.93
2023-05-21T21:32:58.331Z,19.97
2023-05-21T21:35:25.662Z,17.57
2023-05-21T21:37:53.085Z,24.20
2023-05-21T21:40:20.075Z,23.80
2023-05-21T21:42:47.186Z,23.03
2023-05-21T21:45:14.217Z,23.00
2023-05-21T21:47:41.435Z,26.10
2023-05-21T21:50:08.833Z,21.63
2023-05-21T21:52:40.213Z,20.77
2023-05-21T21:55:12.471Z,23.03
2023-05-21T21:57:39.890Z,18.53
2023-05-21T22:00:16.031Z,19.77
2023-05-21T22:02:44.134Z,19.00
2023-05-21T22:05:14.722Z,22.27
2023-05-21T22:07:48.568Z,26.23
2023-05-21T22:10:16.641Z,20.73
2023-05-21T22:12:44.701Z,20.43
2023-05-21T22:15:24.319Z,20.97
2023-05-21T22:17:52.055Z,26.10
2023-05-21T22:20:19.371Z,24.97
2023-05-21T22:22:47.083Z,24.87
2023-05-21T22:25:14.197Z,21.07
2023-05-21T22:27:42.549Z,22.50
2023-05-21T22:30:10.105Z,25.00
2023-05-21T22:32:37.652Z,20.43
2023-05-21T22:35:05.185Z,22.60
2023-05-21T22:37:32.244Z,32.57
2023-05-21T22:40:00.017Z,26.63
2023-05-21T22:42:26.991Z,30.33
2023-05-21T22:44:53.886Z,25.30
2023-05-21T22:47:23.858Z,27.93
2023-05-21T22:49:53.505Z,24.50
2023-05-21T22:52:24.374Z,27.00
2023-05-21T22:54:52.748Z,27.30
2023-05-21T22:57:19.846Z,30.27
2023-05-21T22:59:46.823Z,29.17
2023-05-21T23:02:13.913Z,30.03
2023-05-21T23:04:44.360Z,32.70
2023-05-21T23:07:12.254Z,29.70
2023-05-21T23:09:39.562Z,35.07
2023-05-21T23:12:07.076Z,29.77
2023-05-21T23:14:34.095Z,32.17
2023-05-21T23:17:04.530Z,30.23
2023-05-21T23:19:32.927Z,29.77
2023-05-21T23:22:00.543Z,28.20
2023-05-21T23:24:29.354Z,31.50
2023-05-21T23:27:02.966Z,28.10
2023-05-21T23:29:30.825Z,29.50
2023-05-21T23:31:58.389Z,31.77
2023-05-21T23:34:26.158Z,27.17
2023-05-21T23:36:53.470Z,33.10
2023-05-21T23:39:21.168Z,27.00
2023-05-21T23:41:48.531Z,28.87
2023-05-21T23:44:15.806Z,35.20
2023-05-21T23:46:46.256Z,32.60
2023-05-21T23:49:13.302Z,31.43
2023-05-21T23:51:40.454Z,27.90
2023-05-21T23:54:08.284Z,31.17
2023-05-21T23:56:35.626Z,28.63
2023-05-21T23:59:02.697Z,30.50
